Terminal Aerodrome Forecast
Issued by NWS

Home | Current Version | Previous Version | Text Only | Print | Product List | Glossary On
Versions: 1 2 3 4 5 6 7 8 9 10 11 12 13 14 15
000
FTUS46 KSEW 310526
TAFBLI
TAF
KBLI 310526Z 3106/0106 16008KT P6SM -RA SCT025 BKN040 OVC060
     FM311300 16012KT P6SM -RA BKN025 OVC040
      TEMPO 3113/3117 4SM -RA
     FM010000 18012KT P6SM -SHRA BKN035 OVC070=

USA.gov is the U.S. government's official web portal to all federal, state and local government web resources and services.